Main page
METAR-TAF:

METAR-TAF

Airports :

Assiut Airport

Asyut, Egypt

latitude: 27-03N, longitude: 031-01E, elevation: 226 m

Current weather observation

The report was made 48 minutes ago, at 17:00 UTC
Wind 12 kt from the North
Temperature 22°C
Humidity 50%
Pressure 1021 hPa
Visibility 10 km or more
no clouds below 1500 m and no cumulonimbus

METAR: HEAT 211700Z 35012KT CAVOK 22/11 Q1021 NOSIG

Time: 19:48 (17:48 UTC)

Forecast

The report was made 48 minutes ago, at 17:00 UTC
Forecast valid from 21 at 18 UTC to 22 at 24 UTC
Wind 15 kt from the North/Northwest
Visibility 10 km or more
no clouds below 1500 m and no cumulonimbus

TAF: HEAT 211700Z 2118/2224 34015KT CAVOK

Weather observations and forecasts of more than 4000 airports (METAR and TAF reports).

The available stations are represented by yellow and red dots on the map.

Hover mouse over dot to see the name of the station.

Then click to see weather observations and forecasts.

To change the map : click on the green buttons with a black cross to zoom in, on the green button with a dash to zoom out, or on the green arrows for adjacent maps.


METAR-TAF: